< < Back
Terminal Aerodrome Forecast


Current Version              Previous Versions:   1  2  3  4  5  6  7  8  9  

Terminal Aerodrome Forecast

620
FTUS42 KFFC 241231 AAA
TAFMCN
TAF AMD
KMCN 241231Z 2413/2512 04004KT P6SM BKN080
     FM241400 26004KT P6SM FEW080
     FM241800 22005KT P6SM FEW045
     FM250000 18003KT P6SM SKC=



Latest METAR

375
SAUS80 KWBC 242100 RRA
MTRMCN
METAR KMCN 242053Z VRB05KT 10SM SCT080 30/11 A3011 RMK AO2 SLP191
T03000106 56013


USA.gov is the U.S. government's official web portal to all federal, state and local government web resources and services.